sensor_id;sensor_type;location;lat;lon;timestamp;temperature;humidity
8780;DHT22;62328;51.19929245;4.42130175;2022-09-29T00:00:44;10.00;99.90
8780;DHT22;62328;51.19929245;4.42130175;2022-09-29T00:03:12;10.00;99.90
8780;DHT22;62328;51.19929245;4.42130175;2022-09-29T00:05:39;10.00;99.90
8780;DHT22;62328;51.19929245;4.42130175;2022-09-29T00:08:05;10.00;99.90
8780;DHT22;62328;51.19929245;4.42130175;2022-09-29T00:10:32;10.00;99.90
8780;DHT22;62328;51.19929245;4.42130175;2022-09-29T00:12:59;10.00;99.90
8780;DHT22;62328;51.19929245;4.42130175;2022-09-29T00:15:26;10.00;99.90
8780;DHT22;62328;51.19929245;4.42130175;2022-09-29T00:17:52;9.90;99.90
8780;DHT22;62328;51.19929245;4.42130175;2022-09-29T00:20:20;9.90;99.90
8780;DHT22;62328;51.19929245;4.42130175;2022-09-29T00:22:49;9.80;99.90
8780;DHT22;62328;51.19929245;4.42130175;2022-09-29T00:25:16;9.80;99.90
8780;DHT22;62328;51.19929245;4.42130175;2022-09-29T00:27:43;9.90;99.90
8780;DHT22;62328;51.19929245;4.42130175;2022-09-29T00:30:10;9.80;99.90
8780;DHT22;62328;51.19929245;4.42130175;2022-09-29T00:32:37;9.80;99.90
8780;DHT22;62328;51.19929245;4.42130175;2022-09-29T00:35:05;9.80;99.90
8780;DHT22;62328;51.19929245;4.42130175;2022-09-29T00:37:34;9.80;99.90
8780;DHT22;62328;51.19929245;4.42130175;2022-09-29T00:40:03;9.80;99.90
8780;DHT22;62328;51.19929245;4.42130175;2022-09-29T00:42:31;9.80;99.90
8780;DHT22;62328;51.19929245;4.42130175;2022-09-29T00:45:13;9.80;99.90
8780;DHT22;62328;51.19929245;4.42130175;2022-09-29T00:47:44;9.80;99.90
8780;DHT22;62328;51.19929245;4.42130175;2022-09-29T00:50:17;9.70;99.90
8780;DHT22;62328;51.19929245;4.42130175;2022-09-29T00:52:50;9.70;99.90
8780;DHT22;62328;51.19929245;4.42130175;2022-09-29T00:55:21;9.70;99.90
8780;DHT22;62328;51.19929245;4.42130175;2022-09-29T00:57:53;9.70;99.90
8780;DHT22;62328;51.19929245;4.42130175;2022-09-29T01:00:22;9.70;99.90
8780;DHT22;62328;51.19929245;4.42130175;2022-09-29T01:02:51;9.70;99.90
8780;DHT22;62328;51.19929245;4.42130175;2022-09-29T01:05:23;9.70;99.90
8780;DHT22;62328;51.19929245;4.42130175;2022-09-29T01:07:52;9.70;99.90
8780;DHT22;62328;51.19929245;4.42130175;2022-09-29T01:10:19;9.70;99.90
8780;DHT22;62328;51.19929245;4.42130175;2022-09-29T01:12:47;9.70;99.90
8780;DHT22;62328;51.19929245;4.42130175;2022-09-29T01:15:17;9.60;99.90
8780;DHT22;62328;51.19929245;4.42130175;2022-09-29T01:17:45;9.60;99.90
8780;DHT22;62328;51.19929245;4.42130175;2022-09-29T01:20:16;9.60;99.90
8780;DHT22;62328;51.19929245;4.42130175;2022-09-29T01:23:30;9.70;99.90
8780;DHT22;62328;51.19929245;4.42130175;2022-09-29T01:30:07;9.70;99.90
8780;DHT22;62328;51.19929245;4.42130175;2022-09-29T01:32:49;9.60;99.90
8780;DHT22;62328;51.19929245;4.42130175;2022-09-29T01:35:22;9.50;99.90
8780;DHT22;62328;51.19929245;4.42130175;2022-09-29T01:38:01;9.50;99.90
8780;DHT22;62328;51.19929245;4.42130175;2022-09-29T01:40:37;9.50;99.90
8780;DHT22;62328;51.19929245;4.42130175;2022-09-29T01:43:10;9.50;99.90
8780;DHT22;62328;51.19929245;4.42130175;2022-09-29T01:45:42;9.40;99.90
8780;DHT22;62328;51.19929245;4.42130175;2022-09-29T01:48:15;9.40;99.90
8780;DHT22;62328;51.19929245;4.42130175;2022-09-29T01:50:46;9.40;99.90
8780;DHT22;62328;51.19929245;4.42130175;2022-09-29T01:53:16;9.30;99.90
8780;DHT22;62328;51.19929245;4.42130175;2022-09-29T01:55:47;9.30;99.90
8780;DHT22;62328;51.19929245;4.42130175;2022-09-29T01:58:17;9.40;99.90
8780;DHT22;62328;51.19929245;4.42130175;2022-09-29T02:00:49;9.40;99.90
8780;DHT22;62328;51.19929245;4.42130175;2022-09-29T02:03:21;9.40;99.90
8780;DHT22;62328;51.19929245;4.42130175;2022-09-29T02:05:52;9.40;99.90
8780;DHT22;62328;51.19929245;4.42130175;2022-09-29T02:08:25;9.40;99.90
8780;DHT22;62328;51.19929245;4.42130175;2022-09-29T02:11:00;9.40;99.90
8780;DHT22;62328;51.19929245;4.42130175;2022-09-29T02:13:29;9.40;99.90
8780;DHT22;62328;51.19929245;4.42130175;2022-09-29T02:15:57;9.30;99.90
8780;DHT22;62328;51.19929245;4.42130175;2022-09-29T02:18:30;9.30;99.90
8780;DHT22;62328;51.19929245;4.42130175;2022-09-29T02:20:58;9.40;99.90
8780;DHT22;62328;51.19929245;4.42130175;2022-09-29T02:23:25;9.30;99.90
8780;DHT22;62328;51.19929245;4.42130175;2022-09-29T02:25:54;9.30;99.90
8780;DHT22;62328;51.19929245;4.42130175;2022-09-29T02:28:23;9.30;99.90
8780;DHT22;62328;51.19929245;4.42130175;2022-09-29T02:30:50;9.30;99.90
8780;DHT22;62328;51.19929245;4.42130175;2022-09-29T02:33:18;9.30;99.90
8780;DHT22;62328;51.19929245;4.42130175;2022-09-29T02:35:54;9.20;99.90
8780;DHT22;62328;51.19929245;4.42130175;2022-09-29T02:38:27;9.20;99.90
8780;DHT22;62328;51.19929245;4.42130175;2022-09-29T02:41:01;9.20;99.90
8780;DHT22;62328;51.19929245;4.42130175;2022-09-29T02:43:43;9.20;99.90
8780;DHT22;62328;51.19929245;4.42130175;2022-09-29T02:46:34;9.20;99.90
8780;DHT22;62328;51.19929245;4.42130175;2022-09-29T02:49:15;9.20;99.90
8780;DHT22;62328;51.19929245;4.42130175;2022-09-29T02:51:51;9.20;99.90
8780;DHT22;62328;51.19929245;4.42130175;2022-09-29T02:54:28;9.20;99.90
8780;DHT22;62328;51.19929245;4.42130175;2022-09-29T02:57:03;9.20;99.90
8780;DHT22;62328;51.19929245;4.42130175;2022-09-29T02:59:36;9.10;99.90
8780;DHT22;62328;51.19929245;4.42130175;2022-09-29T03:02:05;9.10;99.90
8780;DHT22;62328;51.19929245;4.42130175;2022-09-29T03:04:32;9.10;99.90
8780;DHT22;62328;51.19929245;4.42130175;2022-09-29T03:07:00;9.00;99.90
8780;DHT22;62328;51.19929245;4.42130175;2022-09-29T03:09:27;9.00;99.90
8780;DHT22;62328;51.19929245;4.42130175;2022-09-29T03:11:54;9.10;99.90
8780;DHT22;62328;51.19929245;4.42130175;2022-09-29T03:14:21;9.20;99.90
8780;DHT22;62328;51.19929245;4.42130175;2022-09-29T03:16:48;9.20;99.90
8780;DHT22;62328;51.19929245;4.42130175;2022-09-29T03:19:15;9.20;99.90
8780;DHT22;62328;51.19929245;4.42130175;2022-09-29T03:21:42;9.10;99.90
8780;DHT22;62328;51.19929245;4.42130175;2022-09-29T03:24:10;9.10;99.90
8780;DHT22;62328;51.19929245;4.42130175;2022-09-29T03:26:37;9.10;99.90
8780;DHT22;62328;51.19929245;4.42130175;2022-09-29T03:29:04;9.10;99.90
8780;DHT22;62328;51.19929245;4.42130175;2022-09-29T03:31:31;9.10;99.90
8780;DHT22;62328;51.19929245;4.42130175;2022-09-29T03:33:57;9.00;99.90
8780;DHT22;62328;51.19929245;4.42130175;2022-09-29T03:36:24;9.00;99.90
8780;DHT22;62328;51.19929245;4.42130175;2022-09-29T03:38:51;9.00;99.90
8780;DHT22;62328;51.19929245;4.42130175;2022-09-29T03:41:20;9.00;99.90
8780;DHT22;62328;51.19929245;4.42130175;2022-09-29T03:43:46;9.00;99.90
8780;DHT22;62328;51.19929245;4.42130175;2022-09-29T03:46:13;9.00;99.90
8780;DHT22;62328;51.19929245;4.42130175;2022-09-29T03:48:40;9.00;99.90
8780;DHT22;62328;51.19929245;4.42130175;2022-09-29T03:51:07;9.00;99.90
8780;DHT22;62328;51.19929245;4.42130175;2022-09-29T03:53:34;9.00;99.90
8780;DHT22;62328;51.19929245;4.42130175;2022-09-29T03:56:02;9.00;99.90
8780;DHT22;62328;51.19929245;4.42130175;2022-09-29T03:58:31;9.00;99.90
8780;DHT22;62328;51.19929245;4.42130175;2022-09-29T04:00:57;9.00;99.90
8780;DHT22;62328;51.19929245;4.42130175;2022-09-29T04:03:26;9.00;99.90
8780;DHT22;62328;51.19929245;4.42130175;2022-09-29T04:05:53;9.00;99.90
8780;DHT22;62328;51.19929245;4.42130175;2022-09-29T04:08:20;9.00;99.90
8780;DHT22;62328;51.19929245;4.42130175;2022-09-29T04:10:47;9.00;99.90
8780;DHT22;62328;51.19929245;4.42130175;2022-09-29T04:13:14;9.00;99.90
8780;DHT22;62328;51.19929245;4.42130175;2022-09-29T04:15:42;9.00;99.90
8780;DHT22;62328;51.19929245;4.42130175;2022-09-29T04:18:09;9.00;99.90
8780;DHT22;62328;51.19929245;4.42130175;2022-09-29T04:20:36;9.10;99.90
8780;DHT22;62328;51.19929245;4.42130175;2022-09-29T04:23:03;9.10;99.90
8780;DHT22;62328;51.19929245;4.42130175;2022-09-29T04:25:31;9.10;99.90
8780;DHT22;62328;51.19929245;4.42130175;2022-09-29T04:27:58;9.00;99.90
8780;DHT22;62328;51.19929245;4.42130175;2022-09-29T04:30:25;9.00;99.90
8780;DHT22;62328;51.19929245;4.42130175;2022-09-29T04:32:53;8.90;99.90
8780;DHT22;62328;51.19929245;4.42130175;2022-09-29T04:35:20;8.90;99.90
8780;DHT22;62328;51.19929245;4.42130175;2022-09-29T04:37:46;8.90;99.90
8780;DHT22;62328;51.19929245;4.42130175;2022-09-29T04:40:13;8.90;99.90
8780;DHT22;62328;51.19929245;4.42130175;2022-09-29T04:42:42;8.90;99.90
8780;DHT22;62328;51.19929245;4.42130175;2022-09-29T04:45:09;8.80;99.90
8780;DHT22;62328;51.19929245;4.42130175;2022-09-29T04:47:36;8.80;99.90
8780;DHT22;62328;51.19929245;4.42130175;2022-09-29T04:50:05;8.70;99.90
8780;DHT22;62328;51.19929245;4.42130175;2022-09-29T04:52:34;8.70;99.90
8780;DHT22;62328;51.19929245;4.42130175;2022-09-29T04:55:01;8.70;99.90
8780;DHT22;62328;51.19929245;4.42130175;2022-09-29T04:57:28;8.70;99.90
8780;DHT22;62328;51.19929245;4.42130175;2022-09-29T04:59:55;8.70;99.90
8780;DHT22;62328;51.19929245;4.42130175;2022-09-29T05:02:22;8.70;99.90
8780;DHT22;62328;51.19929245;4.42130175;2022-09-29T05:04:49;8.70;99.90
8780;DHT22;62328;51.19929245;4.42130175;2022-09-29T05:07:17;8.80;99.90
8780;DHT22;62328;51.19929245;4.42130175;2022-09-29T05:09:44;8.80;99.90
8780;DHT22;62328;51.19929245;4.42130175;2022-09-29T05:12:10;8.80;99.90
8780;DHT22;62328;51.19929245;4.42130175;2022-09-29T05:14:37;8.80;99.90
8780;DHT22;62328;51.19929245;4.42130175;2022-09-29T05:17:04;8.80;99.90
8780;DHT22;62328;51.19929245;4.42130175;2022-09-29T05:19:31;8.80;99.90
8780;DHT22;62328;51.19929245;4.42130175;2022-09-29T05:21:59;8.70;99.90
8780;DHT22;62328;51.19929245;4.42130175;2022-09-29T05:24:29;8.70;99.90
8780;DHT22;62328;51.19929245;4.42130175;2022-09-29T05:26:56;8.80;99.90
8780;DHT22;62328;51.19929245;4.42130175;2022-09-29T05:29:23;8.80;99.90
8780;DHT22;62328;51.19929245;4.42130175;2022-09-29T05:31:50;8.80;99.90
8780;DHT22;62328;51.19929245;4.42130175;2022-09-29T05:34:17;8.80;99.90
8780;DHT22;62328;51.19929245;4.42130175;2022-09-29T05:36:44;8.80;99.90
8780;DHT22;62328;51.19929245;4.42130175;2022-09-29T05:39:11;8.70;99.90
8780;DHT22;62328;51.19929245;4.42130175;2022-09-29T05:41:39;8.80;99.90
8780;DHT22;62328;51.19929245;4.42130175;2022-09-29T05:44:06;8.80;99.90
8780;DHT22;62328;51.19929245;4.42130175;2022-09-29T05:46:33;8.80;99.90
8780;DHT22;62328;51.19929245;4.42130175;2022-09-29T05:49:00;8.90;99.90
8780;DHT22;62328;51.19929245;4.42130175;2022-09-29T05:51:28;8.80;99.90
8780;DHT22;62328;51.19929245;4.42130175;2022-09-29T05:53:54;8.80;99.90
8780;DHT22;62328;51.19929245;4.42130175;2022-09-29T05:56:23;8.90;99.90
8780;DHT22;62328;51.19929245;4.42130175;2022-09-29T05:58:52;8.90;99.90
8780;DHT22;62328;51.19929245;4.42130175;2022-09-29T06:01:20;8.80;99.90
8780;DHT22;62328;51.19929245;4.42130175;2022-09-29T06:03:47;8.80;99.90
8780;DHT22;62328;51.19929245;4.42130175;2022-09-29T06:06:17;8.80;99.90
8780;DHT22;62328;51.19929245;4.42130175;2022-09-29T06:08:44;8.80;99.90
8780;DHT22;62328;51.19929245;4.42130175;2022-09-29T06:11:13;8.80;99.90
8780;DHT22;62328;51.19929245;4.42130175;2022-09-29T06:13:41;8.80;99.90
8780;DHT22;62328;51.19929245;4.42130175;2022-09-29T06:16:10;8.90;99.90
8780;DHT22;62328;51.19929245;4.42130175;2022-09-29T06:18:37;8.80;99.90
8780;DHT22;62328;51.19929245;4.42130175;2022-09-29T06:21:06;8.80;99.90
8780;DHT22;62328;51.19929245;4.42130175;2022-09-29T06:23:34;8.80;99.90
8780;DHT22;62328;51.19929245;4.42130175;2022-09-29T06:26:03;8.80;99.90
8780;DHT22;62328;51.19929245;4.42130175;2022-09-29T06:28:31;8.80;99.90
8780;DHT22;62328;51.19929245;4.42130175;2022-09-29T06:30:58;8.80;99.90
8780;DHT22;62328;51.19929245;4.42130175;2022-09-29T06:33:28;8.80;99.90
8780;DHT22;62328;51.19929245;4.42130175;2022-09-29T06:35:55;8.90;99.90
8780;DHT22;62328;51.19929245;4.42130175;2022-09-29T06:38:40;8.90;99.90
8780;DHT22;62328;51.19929245;4.42130175;2022-09-29T06:41:07;9.00;99.90
8780;DHT22;62328;51.19929245;4.42130175;2022-09-29T06:43:34;9.00;99.90
8780;DHT22;62328;51.19929245;4.42130175;2022-09-29T06:46:03;9.10;99.90
8780;DHT22;62328;51.19929245;4.42130175;2022-09-29T06:48:31;9.10;99.90
8780;DHT22;62328;51.19929245;4.42130175;2022-09-29T06:50:58;9.10;99.90
8780;DHT22;62328;51.19929245;4.42130175;2022-09-29T06:53:25;9.20;99.90
8780;DHT22;62328;51.19929245;4.42130175;2022-09-29T06:55:52;9.20;99.90
8780;DHT22;62328;51.19929245;4.42130175;2022-09-29T06:58:20;9.20;99.90
8780;DHT22;62328;51.19929245;4.42130175;2022-09-29T07:00:47;9.20;99.90
8780;DHT22;62328;51.19929245;4.42130175;2022-09-29T07:03:13;9.10;99.90
8780;DHT22;62328;51.19929245;4.42130175;2022-09-29T07:05:42;9.20;99.90
8780;DHT22;62328;51.19929245;4.42130175;2022-09-29T07:08:09;9.20;99.90
8780;DHT22;62328;51.19929245;4.42130175;2022-09-29T07:10:36;9.20;99.90
8780;DHT22;62328;51.19929245;4.42130175;2022-09-29T07:13:03;9.30;99.90
8780;DHT22;62328;51.19929245;4.42130175;2022-09-29T07:15:30;9.40;99.90
8780;DHT22;62328;51.19929245;4.42130175;2022-09-29T07:17:57;9.30;99.90
8780;DHT22;62328;51.19929245;4.42130175;2022-09-29T07:20:26;9.40;99.90
8780;DHT22;62328;51.19929245;4.42130175;2022-09-29T07:22:54;9.40;99.90
8780;DHT22;62328;51.19929245;4.42130175;2022-09-29T07:25:22;9.50;99.90
8780;DHT22;62328;51.19929245;4.42130175;2022-09-29T07:27:50;9.50;99.90
8780;DHT22;62328;51.19929245;4.42130175;2022-09-29T07:30:17;9.60;99.90
8780;DHT22;62328;51.19929245;4.42130175;2022-09-29T07:32:44;9.60;99.90
8780;DHT22;62328;51.19929245;4.42130175;2022-09-29T07:35:11;9.70;99.90
8780;DHT22;62328;51.19929245;4.42130175;2022-09-29T07:37:38;9.80;99.90
8780;DHT22;62328;51.19929245;4.42130175;2022-09-29T07:40:07;9.90;99.90
8780;DHT22;62328;51.19929245;4.42130175;2022-09-29T07:42:34;9.90;99.90
8780;DHT22;62328;51.19929245;4.42130175;2022-09-29T07:45:00;10.00;99.90
8780;DHT22;62328;51.19929245;4.42130175;2022-09-29T07:47:27;10.10;99.90
8780;DHT22;62328;51.19929245;4.42130175;2022-09-29T07:49:54;10.10;99.90
8780;DHT22;62328;51.19929245;4.42130175;2022-09-29T07:52:21;10.10;99.90
8780;DHT22;62328;51.19929245;4.42130175;2022-09-29T07:54:47;10.20;99.90
8780;DHT22;62328;51.19929245;4.42130175;2022-09-29T07:57:15;10.30;99.90
8780;DHT22;62328;51.19929245;4.42130175;2022-09-29T07:59:42;10.40;99.90
8780;DHT22;62328;51.19929245;4.42130175;2022-09-29T08:02:10;10.50;99.90
8780;DHT22;62328;51.19929245;4.42130175;2022-09-29T08:04:36;10.50;99.90
8780;DHT22;62328;51.19929245;4.42130175;2022-09-29T08:07:03;10.60;99.90
8780;DHT22;62328;51.19929245;4.42130175;2022-09-29T08:09:30;10.70;99.90
8780;DHT22;62328;51.19929245;4.42130175;2022-09-29T08:11:57;10.70;99.90
8780;DHT22;62328;51.19929245;4.42130175;2022-09-29T08:14:25;10.70;99.90
8780;DHT22;62328;51.19929245;4.42130175;2022-09-29T08:16:52;10.80;99.90
8780;DHT22;62328;51.19929245;4.42130175;2022-09-29T08:19:19;10.90;99.90
8780;DHT22;62328;51.19929245;4.42130175;2022-09-29T08:21:46;11.00;99.90
8780;DHT22;62328;51.19929245;4.42130175;2022-09-29T08:24:15;11.10;99.90
8780;DHT22;62328;51.19929245;4.42130175;2022-09-29T08:26:42;11.20;99.90
8780;DHT22;62328;51.19929245;4.42130175;2022-09-29T08:29:09;11.20;99.90
8780;DHT22;62328;51.19929245;4.42130175;2022-09-29T08:31:38;11.20;99.90
8780;DHT22;62328;51.19929245;4.42130175;2022-09-29T08:34:06;11.30;99.90
8780;DHT22;62328;51.19929245;4.42130175;2022-09-29T08:36:33;11.40;99.90
8780;DHT22;62328;51.19929245;4.42130175;2022-09-29T08:39:02;11.40;99.90
8780;DHT22;62328;51.19929245;4.42130175;2022-09-29T08:41:49;11.50;99.90
8780;DHT22;62328;51.19929245;4.42130175;2022-09-29T08:44:21;11.60;99.90
8780;DHT22;62328;51.19929245;4.42130175;2022-09-29T08:46:53;11.70;99.90
8780;DHT22;62328;51.19929245;4.42130175;2022-09-29T08:49:25;11.80;99.90
8780;DHT22;62328;51.19929245;4.42130175;2022-09-29T08:51:56;12.00;99.90
8780;DHT22;62328;51.19929245;4.42130175;2022-09-29T08:54:27;12.10;99.90
8780;DHT22;62328;51.19929245;4.42130175;2022-09-29T08:56:56;12.10;99.90
8780;DHT22;62328;51.19929245;4.42130175;2022-09-29T08:59:23;12.30;99.90
8780;DHT22;62328;51.19929245;4.42130175;2022-09-29T09:02:18;12.30;99.90
8780;DHT22;62328;51.19929245;4.42130175;2022-09-29T09:05:03;12.40;99.90
8780;DHT22;62328;51.19929245;4.42130175;2022-09-29T09:07:38;12.50;99.90
8780;DHT22;62328;51.19929245;4.42130175;2022-09-29T09:10:20;12.50;99.90
8780;DHT22;62328;51.19929245;4.42130175;2022-09-29T09:13:07;12.50;99.90
8780;DHT22;62328;51.19929245;4.42130175;2022-09-29T09:15:54;12.70;99.90
8780;DHT22;62328;51.19929245;4.42130175;2022-09-29T09:21:35;12.80;99.90
8780;DHT22;62328;51.19929245;4.42130175;2022-09-29T09:24:13;13.00;99.90
8780;DHT22;62328;51.19929245;4.42130175;2022-09-29T09:26:43;12.90;99.90
8780;DHT22;62328;51.19929245;4.42130175;2022-09-29T09:29:16;13.00;99.90
8780;DHT22;62328;51.19929245;4.42130175;2022-09-29T09:31:50;13.10;99.90
8780;DHT22;62328;51.19929245;4.42130175;2022-09-29T09:34:25;13.10;99.90
8780;DHT22;62328;51.19929245;4.42130175;2022-09-29T09:36:55;13.20;99.90
8780;DHT22;62328;51.19929245;4.42130175;2022-09-29T09:39:27;13.40;99.90
8780;DHT22;62328;51.19929245;4.42130175;2022-09-29T09:41:57;13.40;99.90
8780;DHT22;62328;51.19929245;4.42130175;2022-09-29T09:44:31;13.50;99.90
8780;DHT22;62328;51.19929245;4.42130175;2022-09-29T09:47:02;13.60;99.90
8780;DHT22;62328;51.19929245;4.42130175;2022-09-29T09:49:34;13.60;99.90
8780;DHT22;62328;51.19929245;4.42130175;2022-09-29T09:52:08;13.50;99.90
8780;DHT22;62328;51.19929245;4.42130175;2022-09-29T09:54:39;13.50;99.90
8780;DHT22;62328;51.19929245;4.42130175;2022-09-29T09:57:24;13.40;99.90
8780;DHT22;62328;51.19929245;4.42130175;2022-09-29T10:00:02;13.50;99.90
8780;DHT22;62328;51.19929245;4.42130175;2022-09-29T10:02:31;13.70;99.90
8780;DHT22;62328;51.19929245;4.42130175;2022-09-29T10:04:59;13.80;99.90
8780;DHT22;62328;51.19929245;4.42130175;2022-09-29T10:07:28;13.80;99.90
8780;DHT22;62328;51.19929245;4.42130175;2022-09-29T10:09:57;13.90;99.90
8780;DHT22;62328;51.19929245;4.42130175;2022-09-29T10:12:28;13.90;99.90
8780;DHT22;62328;51.19929245;4.42130175;2022-09-29T10:14:58;13.90;99.90
8780;DHT22;62328;51.19929245;4.42130175;2022-09-29T10:17:32;13.90;99.90
8780;DHT22;62328;51.19929245;4.42130175;2022-09-29T10:20:04;13.90;99.90
8780;DHT22;62328;51.19929245;4.42130175;2022-09-29T10:22:32;14.00;99.90
8780;DHT22;62328;51.19929245;4.42130175;2022-09-29T10:25:06;14.00;99.90
8780;DHT22;62328;51.19929245;4.42130175;2022-09-29T10:27:35;14.00;99.90
8780;DHT22;62328;51.19929245;4.42130175;2022-09-29T10:30:16;13.90;99.90
8780;DHT22;62328;51.19929245;4.42130175;2022-09-29T10:32:44;13.90;99.90
8780;DHT22;62328;51.19929245;4.42130175;2022-09-29T10:35:19;13.80;99.90
8780;DHT22;62328;51.19929245;4.42130175;2022-09-29T10:37:57;13.80;99.90
8780;DHT22;62328;51.19929245;4.42130175;2022-09-29T10:40:25;13.80;99.90
8780;DHT22;62328;51.19929245;4.42130175;2022-09-29T10:42:52;13.90;99.90
8780;DHT22;62328;51.19929245;4.42130175;2022-09-29T10:45:20;14.10;99.90
8780;DHT22;62328;51.19929245;4.42130175;2022-09-29T10:47:50;14.20;99.90
8780;DHT22;62328;51.19929245;4.42130175;2022-09-29T10:50:36;14.50;99.90
8780;DHT22;62328;51.19929245;4.42130175;2022-09-29T10:53:05;14.50;99.90
8780;DHT22;62328;51.19929245;4.42130175;2022-09-29T10:55:47;14.60;99.90
8780;DHT22;62328;51.19929245;4.42130175;2022-09-29T10:58:21;14.60;99.90
8780;DHT22;62328;51.19929245;4.42130175;2022-09-29T11:01:02;14.70;99.90
8780;DHT22;62328;51.19929245;4.42130175;2022-09-29T11:03:32;14.70;99.90
8780;DHT22;62328;51.19929245;4.42130175;2022-09-29T11:06:04;14.70;99.90
8780;DHT22;62328;51.19929245;4.42130175;2022-09-29T11:08:32;14.70;99.90
8780;DHT22;62328;51.19929245;4.42130175;2022-09-29T11:11:04;14.70;99.90
8780;DHT22;62328;51.19929245;4.42130175;2022-09-29T11:13:37;14.70;99.90
8780;DHT22;62328;51.19929245;4.42130175;2022-09-29T11:16:13;14.80;99.90
8780;DHT22;62328;51.19929245;4.42130175;2022-09-29T11:18:41;14.90;99.90
8780;DHT22;62328;51.19929245;4.42130175;2022-09-29T11:21:38;15.00;99.90
8780;DHT22;62328;51.19929245;4.42130175;2022-09-29T11:24:15;15.20;99.90
8780;DHT22;62328;51.19929245;4.42130175;2022-09-29T11:26:48;15.30;99.90
8780;DHT22;62328;51.19929245;4.42130175;2022-09-29T11:29:27;15.30;99.90
8780;DHT22;62328;51.19929245;4.42130175;2022-09-29T11:32:18;15.40;99.90
8780;DHT22;62328;51.19929245;4.42130175;2022-09-29T11:34:58;15.30;99.90
8780;DHT22;62328;51.19929245;4.42130175;2022-09-29T11:37:39;15.20;99.90
8780;DHT22;62328;51.19929245;4.42130175;2022-09-29T11:40:11;15.40;99.90
8780;DHT22;62328;51.19929245;4.42130175;2022-09-29T11:42:59;15.30;99.90
8780;DHT22;62328;51.19929245;4.42130175;2022-09-29T11:45:36;15.20;99.90
8780;DHT22;62328;51.19929245;4.42130175;2022-09-29T11:48:23;15.10;99.90
8780;DHT22;62328;51.19929245;4.42130175;2022-09-29T11:50:59;15.00;99.90
8780;DHT22;62328;51.19929245;4.42130175;2022-09-29T11:53:49;14.90;99.90
8780;DHT22;62328;51.19929245;4.42130175;2022-09-29T11:56:33;14.80;99.90
8780;DHT22;62328;51.19929245;4.42130175;2022-09-29T11:59:21;14.60;99.90
8780;DHT22;62328;51.19929245;4.42130175;2022-09-29T12:02:03;14.50;99.90
8780;DHT22;62328;51.19929245;4.42130175;2022-09-29T12:04:47;14.40;99.90
8780;DHT22;62328;51.19929245;4.42130175;2022-09-29T12:07:26;14.30;99.90
8780;DHT22;62328;51.19929245;4.42130175;2022-09-29T12:10:23;14.20;99.90
8780;DHT22;62328;51.19929245;4.42130175;2022-09-29T12:13:01;14.10;99.90
8780;DHT22;62328;51.19929245;4.42130175;2022-09-29T12:15:36;14.10;99.90
8780;DHT22;62328;51.19929245;4.42130175;2022-09-29T12:18:13;14.10;99.90
8780;DHT22;62328;51.19929245;4.42130175;2022-09-29T12:20:42;14.20;99.90
8780;DHT22;62328;51.19929245;4.42130175;2022-09-29T12:23:12;14.20;99.90
8780;DHT22;62328;51.19929245;4.42130175;2022-09-29T12:25:48;14.30;99.90
8780;DHT22;62328;51.19929245;4.42130175;2022-09-29T12:28:23;14.30;99.90
8780;DHT22;62328;51.19929245;4.42130175;2022-09-29T12:30:55;14.40;99.90
8780;DHT22;62328;51.19929245;4.42130175;2022-09-29T12:33:28;14.50;99.90
8780;DHT22;62328;51.19929245;4.42130175;2022-09-29T12:36:07;14.60;99.90
8780;DHT22;62328;51.19929245;4.42130175;2022-09-29T12:39:01;15.00;99.90
8780;DHT22;62328;51.19929245;4.42130175;2022-09-29T12:41:34;15.20;99.90
8780;DHT22;62328;51.19929245;4.42130175;2022-09-29T12:44:07;15.20;99.90
8780;DHT22;62328;51.19929245;4.42130175;2022-09-29T12:46:44;15.20;99.90
8780;DHT22;62328;51.19929245;4.42130175;2022-09-29T12:49:17;15.10;99.90
8780;DHT22;62328;51.19929245;4.42130175;2022-09-29T12:51:46;15.10;99.90
8780;DHT22;62328;51.19929245;4.42130175;2022-09-29T12:54:17;15.10;99.90
8780;DHT22;62328;51.19929245;4.42130175;2022-09-29T12:56:53;15.10;99.90
8780;DHT22;62328;51.19929245;4.42130175;2022-09-29T12:59:30;15.00;99.90
8780;DHT22;62328;51.19929245;4.42130175;2022-09-29T13:02:00;14.90;99.90
8780;DHT22;62328;51.19929245;4.42130175;2022-09-29T13:04:52;14.90;99.90
8780;DHT22;62328;51.19929245;4.42130175;2022-09-29T13:07:57;14.80;99.90
8780;DHT22;62328;51.19929245;4.42130175;2022-09-29T13:10:41;14.70;99.90
8780;DHT22;62328;51.19929245;4.42130175;2022-09-29T13:16:22;14.60;99.90
8780;DHT22;62328;51.19929245;4.42130175;2022-09-29T13:21:59;14.40;99.90
8780;DHT22;62328;51.19929245;4.42130175;2022-09-29T13:24:43;14.40;99.90
8780;DHT22;62328;51.19929245;4.42130175;2022-09-29T13:27:23;14.30;99.90
8780;DHT22;62328;51.19929245;4.42130175;2022-09-29T13:29:56;14.30;99.90
8780;DHT22;62328;51.19929245;4.42130175;2022-09-29T13:32:25;14.30;99.90
8780;DHT22;62328;51.19929245;4.42130175;2022-09-29T13:34:54;14.30;99.90
8780;DHT22;62328;51.19929245;4.42130175;2022-09-29T13:37:24;14.30;99.90
8780;DHT22;62328;51.19929245;4.42130175;2022-09-29T13:39:54;14.30;99.90
8780;DHT22;62328;51.19929245;4.42130175;2022-09-29T13:42:40;14.30;99.90
8780;DHT22;62328;51.19929245;4.42130175;2022-09-29T13:45:43;14.30;99.90
8780;DHT22;62328;51.19929245;4.42130175;2022-09-29T13:48:44;14.30;99.90
8780;DHT22;62328;51.19929245;4.42130175;2022-09-29T13:54:24;14.30;99.90
8780;DHT22;62328;51.19929245;4.42130175;2022-09-29T13:56:59;14.20;99.90
8780;DHT22;62328;51.19929245;4.42130175;2022-09-29T13:59:27;14.30;99.90
8780;DHT22;62328;51.19929245;4.42130175;2022-09-29T14:01:55;14.30;99.90
8780;DHT22;62328;51.19929245;4.42130175;2022-09-29T14:04:45;14.30;99.90
8780;DHT22;62328;51.19929245;4.42130175;2022-09-29T14:07:35;14.30;99.90
8780;DHT22;62328;51.19929245;4.42130175;2022-09-29T14:10:06;14.40;99.90
8780;DHT22;62328;51.19929245;4.42130175;2022-09-29T14:12:40;14.40;99.90
8780;DHT22;62328;51.19929245;4.42130175;2022-09-29T14:15:11;14.30;99.90
8780;DHT22;62328;51.19929245;4.42130175;2022-09-29T14:17:45;14.30;99.90
8780;DHT22;62328;51.19929245;4.42130175;2022-09-29T14:20:19;14.20;99.90